Time;durP1;ratioP1;P1;durP2;ratioP2;P2;SDS_P1;SDS_P2;PMS_P1;PMS_P2;Temp;Humidity;BMP_temperature;BMP_pressure;BME280_temperature;BME280_humidity;BME280_pressure;Samples;Min_cycle;Max_cycle;Signal;HPM_P1;HPM_P2
2022/06/16 00:01:29;;;;;;;8.88;5.00;;;20.10;99.90;;;;;;4860023;29;20056;-76
2022/06/16 00:04:14;;;;;;;9.05;5.35;;;20.00;99.90;;;;;;4859802;29;20073;-77
2022/06/16 00:07:00;;;;;;;9.43;5.10;;;19.70;99.90;;;;;;4878661;29;20048;-77
2022/06/16 00:09:46;;;;;;;11.73;5.53;;;19.60;99.90;;;;;;4877337;29;20055;-77
2022/06/16 00:12:33;;;;;;;9.00;4.97;;;19.60;99.90;;;;;;4878049;29;20064;-77
2022/06/16 00:15:22;;;;;;;9.48;5.63;;;19.60;99.90;;;;;;4878353;29;20080;-78
2022/06/16 00:18:08;;;;;;;8.98;5.00;;;19.60;99.90;;;;;;4879088;29;20140;-77
2022/06/16 00:20:53;;;;;;;9.05;5.22;;;19.60;99.90;;;;;;4878380;29;20056;-78
2022/06/16 00:23:40;;;;;;;9.35;4.78;;;19.50;99.90;;;;;;4878389;29;20184;-77
2022/06/16 00:26:27;;;;;;;7.85;5.25;;;19.70;99.90;;;;;;4879361;29;20063;-76
2022/06/16 00:29:12;;;;;;;9.02;5.18;;;19.80;99.90;;;;;;4877892;29;20052;-76
2022/06/16 00:31:58;;;;;;;9.13;4.97;;;19.90;99.90;;;;;;4878929;29;20092;-77
2022/06/16 00:34:45;;;;;;;11.25;5.75;;;19.80;99.90;;;;;;4878268;29;20053;-77
2022/06/16 00:37:31;;;;;;;10.07;6.32;;;19.10;99.90;;;;;;4878899;29;20056;-77
2022/06/16 00:40:17;;;;;;;12.95;5.78;;;19.10;99.90;;;;;;4878183;29;20056;-77
2022/06/16 00:43:03;;;;;;;11.75;5.47;;;19.20;99.90;;;;;;4878721;29;20109;-76
2022/06/16 00:45:53;;;;;;;14.85;6.43;;;19.20;99.90;;;;;;4878525;29;20801;-77
2022/06/16 00:48:55;;;;;;;15.32;5.80;;;19.10;99.90;;;;;;4877926;29;20093;-76
2022/06/16 00:51:47;;;;;;;12.07;6.28;;;19.10;99.90;;;;;;4878561;29;20079;-77
2022/06/16 00:54:41;;;;;;;14.93;6.25;;;19.00;99.90;;;;;;4878290;29;20661;-76
2022/06/16 00:57:41;;;;;;;14.32;6.90;;;19.10;99.90;;;;;;4878291;29;20132;-78
2022/06/16 01:06:46;;;;;;;16.35;6.97;;;18.80;99.90;;;;;;4878024;29;20140;-75
2022/06/16 01:09:34;;;;;;;21.08;7.03;;;19.00;99.90;;;;;;4877985;29;20052;-76
2022/06/16 01:16:26;;;;;;;13.35;6.32;;;18.70;99.90;;;;;;4878211;29;20060;-76
2022/06/16 01:19:12;;;;;;;12.75;5.82;;;19.00;99.90;;;;;;4877550;29;20105;-75
2022/06/16 01:22:11;;;;;;;13.00;6.00;;;18.90;99.90;;;;;;4878275;29;20060;-76
2022/06/16 01:25:00;;;;;;;11.43;5.82;;;18.90;99.90;;;;;;4877688;29;20052;-77
2022/06/16 01:28:17;;;;;;;15.65;6.75;;;18.70;99.90;;;;;;4878416;29;20059;-77
2022/06/16 01:31:33;;;;;;;16.63;6.90;;;18.90;99.90;;;;;;4878209;29;20051;-76
2022/06/16 01:34:48;;;;;;;11.52;5.90;;;18.80;99.90;;;;;;4877751;29;20055;-77
2022/06/16 01:37:53;;;;;;;14.63;6.32;;;18.70;99.90;;;;;;4878017;29;20532;-76
2022/06/16 01:40:58;;;;;;;14.73;6.38;;;18.70;99.90;;;;;;4878137;29;20059;-77
2022/06/16 01:44:02;;;;;;;17.73;5.90;;;18.60;99.90;;;;;;4877797;29;20174;-76
2022/06/16 01:46:56;;;;;;;13.98;6.10;;;18.70;99.90;;;;;;4877481;29;20585;-75
2022/06/16 01:49:55;;;;;;;11.48;5.93;;;18.40;99.90;;;;;;4877567;29;20100;-75
2022/06/16 01:52:53;;;;;;;9.43;5.63;;;18.40;99.90;;;;;;4876972;29;20057;-76
2022/06/16 01:55:43;;;;;;;9.38;5.70;;;18.20;99.90;;;;;;4876944;29;20072;-76
2022/06/16 01:58:35;;;;;;;9.38;5.30;;;18.20;99.90;;;;;;4877713;29;20180;-75
2022/06/16 02:01:26;;;;;;;11.25;6.20;;;18.00;99.90;;;;;;4877404;29;20132;-76
2022/06/16 02:04:39;;;;;;;10.73;5.63;;;18.10;99.90;;;;;;4877429;29;20069;-75
2022/06/16 02:07:38;;;;;;;12.77;5.72;;;18.10;99.90;;;;;;4837936;29;20068;-76
2022/06/16 02:10:29;;;;;;;14.60;5.75;;;18.20;99.90;;;;;;4859025;29;20129;-75
2022/06/16 02:13:21;;;;;;;9.93;5.07;;;18.20;99.90;;;;;;4858792;29;20056;-76
2022/06/16 02:16:12;;;;;;;9.38;5.13;;;18.30;99.90;;;;;;4861724;29;20051;-76
2022/06/16 02:19:00;;;;;;;9.85;5.13;;;18.30;99.90;;;;;;4862561;29;20065;-74
2022/06/16 02:21:49;;;;;;;11.27;5.28;;;18.40;99.90;;;;;;4861935;29;20084;-75
2022/06/16 02:24:34;;;;;;;10.88;4.97;;;18.30;99.90;;;;;;4861320;29;20532;-75
2022/06/16 02:27:20;;;;;;;8.35;4.75;;;18.30;99.90;;;;;;4861948;29;20174;-74
2022/06/16 02:30:07;;;;;;;8.57;5.25;;;18.30;99.90;;;;;;4861564;29;20190;-74
2022/06/16 02:33:08;;;;;;;10.60;5.05;;;18.20;99.90;;;;;;4861800;29;20410;-74
2022/06/16 02:36:11;;;;;;;10.32;5.20;;;18.10;99.90;;;;;;4861548;29;20185;-75
2022/06/16 02:39:16;;;;;;;9.88;5.10;;;18.20;99.90;;;;;;4861316;29;20056;-75
2022/06/16 02:42:24;;;;;;;9.57;4.85;;;18.00;99.90;;;;;;4861674;29;20132;-75
2022/06/16 02:45:37;;;;;;;8.13;4.90;;;17.90;99.90;;;;;;4861712;29;20059;-75
2022/06/16 02:49:07;;;;;;;10.10;5.47;;;18.10;99.90;;;;;;4851554;29;20426;-76
2022/06/16 02:52:19;;;;;;;11.48;6.38;;;18.10;99.90;;;;;;4804591;29;20087;-77
2022/06/16 02:55:12;;;;;;;12.20;6.30;;;18.30;99.90;;;;;;4804235;29;20058;-76
2022/06/16 02:58:00;;;;;;;12.52;7.32;;;18.30;99.90;;;;;;4860444;29;20052;-76
2022/06/16 03:00:52;;;;;;;15.95;9.65;;;18.50;99.90;;;;;;4861709;29;20168;-75
2022/06/16 03:03:38;;;;;;;16.23;9.27;;;18.50;99.90;;;;;;4861451;29;20083;-76
2022/06/16 03:06:24;;;;;;;17.83;9.45;;;18.40;99.90;;;;;;4871138;29;20177;-76
2022/06/16 03:09:11;;;;;;;19.00;8.85;;;18.40;99.90;;;;;;4880559;29;20514;-77
2022/06/16 03:11:57;;;;;;;17.40;9.45;;;18.10;99.90;;;;;;4879813;29;20052;-77
2022/06/16 03:14:43;;;;;;;17.35;10.00;;;17.90;99.90;;;;;;4879948;29;20052;-76
2022/06/16 03:17:31;;;;;;;15.93;8.18;;;17.60;99.90;;;;;;4880372;29;20081;-76
2022/06/16 03:20:16;;;;;;;16.25;7.28;;;17.50;99.90;;;;;;4879917;29;20089;-77
2022/06/16 03:23:03;;;;;;;14.25;7.28;;;17.60;99.90;;;;;;4879959;29;20088;-77
2022/06/16 03:25:48;;;;;;;12.27;5.43;;;17.70;99.90;;;;;;4879411;29;20048;-76
2022/06/16 03:28:35;;;;;;;10.75;4.95;;;17.80;99.90;;;;;;4879983;29;20079;-77
2022/06/16 03:31:20;;;;;;;10.50;5.10;;;17.70;99.90;;;;;;4879659;29;20537;-75
2022/06/16 03:34:07;;;;;;;8.30;4.90;;;17.50;99.90;;;;;;4879729;29;20409;-76
2022/06/16 03:36:53;;;;;;;11.38;4.95;;;17.50;99.90;;;;;;4879470;29;20060;-75
2022/06/16 03:39:39;;;;;;;11.30;4.60;;;17.40;99.90;;;;;;4879800;29;20067;-76
2022/06/16 03:42:25;;;;;;;11.55;6.40;;;17.70;99.90;;;;;;4879630;29;20154;-75
2022/06/16 03:45:11;;;;;;;6.60;4.35;;;17.50;99.90;;;;;;4879692;29;20056;-75
2022/06/16 03:47:58;;;;;;;7.38;4.68;;;17.20;99.90;;;;;;4879763;29;20047;-75
2022/06/16 03:50:43;;;;;;;11.20;5.00;;;17.30;99.90;;;;;;4879535;29;20185;-75
2022/06/16 03:53:29;;;;;;;10.40;5.65;;;17.30;99.90;;;;;;4878107;29;20048;-76
2022/06/16 03:56:15;;;;;;;10.70;5.50;;;17.40;99.90;;;;;;4879478;29;20429;-75
2022/06/16 03:59:01;;;;;;;10.80;4.97;;;17.40;99.90;;;;;;4879200;29;20052;-75
2022/06/16 04:01:48;;;;;;;13.05;5.68;;;17.60;99.90;;;;;;4878888;29;20056;-75
2022/06/16 04:04:34;;;;;;;10.10;5.45;;;17.70;99.90;;;;;;4879138;29;20185;-76
2022/06/16 04:07:20;;;;;;;10.23;5.75;;;17.80;99.90;;;;;;4878804;29;20068;-77
2022/06/16 04:10:07;;;;;;;9.68;5.45;;;17.90;99.90;;;;;;4879118;29;20072;-75
2022/06/16 04:12:54;;;;;;;10.00;5.80;;;17.90;99.90;;;;;;4879075;29;20506;-75
2022/06/16 04:15:40;;;;;;;17.15;6.55;;;17.90;99.90;;;;;;4879496;29;20064;-76
2022/06/16 04:18:25;;;;;;;12.68;7.18;;;18.00;99.90;;;;;;4879410;29;20064;-77
2022/06/16 04:21:12;;;;;;;10.88;5.80;;;18.10;99.90;;;;;;4877982;29;20053;-76
2022/06/16 04:23:58;;;;;;;14.95;5.97;;;18.20;99.90;;;;;;4879052;29;20067;-75
2022/06/16 04:26:45;;;;;;;15.95;5.82;;;17.80;99.90;;;;;;4878750;29;20048;-76
2022/06/16 04:29:30;;;;;;;12.05;4.85;;;17.80;99.90;;;;;;4878941;29;20112;-76
2022/06/16 04:32:17;;;;;;;10.50;4.93;;;18.10;99.90;;;;;;4878745;29;20067;-76
2022/06/16 04:35:03;;;;;;;9.85;5.07;;;18.20;99.90;;;;;;4877573;29;20422;-76
2022/06/16 04:37:49;;;;;;;10.52;6.18;;;18.20;99.90;;;;;;4878467;29;20125;-76
2022/06/16 04:40:35;;;;;;;123.80;78.30;;;18.20;99.90;;;;;;4878109;29;20505;-76
2022/06/16 04:43:21;;;;;;;152.13;92.90;;;18.30;99.90;;;;;;4878300;29;20052;-77
2022/06/16 04:46:08;;;;;;;55.13;32.38;;;18.30;99.90;;;;;;4878629;29;20056;-75
2022/06/16 04:48:54;;;;;;;20.23;10.15;;;18.30;99.90;;;;;;4863732;29;20100;-76
2022/06/16 04:51:39;;;;;;;64.70;42.17;;;18.40;99.90;;;;;;4869206;29;20065;-75
2022/06/16 04:54:25;;;;;;;138.52;83.70;;;18.40;99.90;;;;;;4875681;29;20056;-75
2022/06/16 04:57:12;;;;;;;39.05;25.85;;;18.50;99.90;;;;;;4878015;29;20052;-75
2022/06/16 04:59:58;;;;;;;19.42;10.32;;;18.70;99.90;;;;;;4878473;29;20236;-74
2022/06/16 05:03:04;;;;;;;21.20;9.00;;;18.70;99.90;;;;;;4878881;29;20194;-75
2022/06/16 05:05:51;;;;;;;19.20;7.18;;;18.80;99.90;;;;;;4876641;29;20063;-75
2022/06/16 05:08:37;;;;;;;12.35;7.13;;;18.70;99.90;;;;;;4859468;29;20061;-74
2022/06/16 05:11:23;;;;;;;12.88;7.15;;;18.70;99.90;;;;;;4859499;29;20240;-74
2022/06/16 05:14:09;;;;;;;14.80;6.53;;;18.60;99.90;;;;;;4858736;29;20086;-75
2022/06/16 05:16:55;;;;;;;12.98;6.55;;;18.50;99.90;;;;;;4859679;29;20406;-75
2022/06/16 05:19:41;;;;;;;13.95;6.65;;;18.60;99.90;;;;;;4859400;29;20072;-76
2022/06/16 05:22:26;;;;;;;12.63;6.00;;;18.80;99.90;;;;;;4859762;29;20521;-77
2022/06/16 05:25:13;;;;;;;14.18;5.22;;;18.80;99.90;;;;;;4859046;29;20190;-75
2022/06/16 05:27:58;;;;;;;14.32;5.90;;;18.90;99.90;;;;;;4859105;29;20117;-75
2022/06/16 05:30:44;;;;;;;14.77;6.85;;;19.10;99.90;;;;;;4857662;29;20064;-75
2022/06/16 05:33:31;;;;;;;9.85;5.15;;;19.10;99.90;;;;;;4857524;29;20528;-76
2022/06/16 05:36:18;;;;;;;9.45;5.40;;;19.10;99.90;;;;;;4857597;29;20056;-76
2022/06/16 05:39:04;;;;;;;101.20;65.35;;;18.90;99.90;;;;;;4857067;29;20158;-76
2022/06/16 05:41:50;;;;;;;43.58;27.98;;;19.00;99.90;;;;;;4864804;29;20418;-76
2022/06/16 05:44:36;;;;;;;77.47;47.88;;;19.10;99.90;;;;;;4867537;29;20052;-75
2022/06/16 05:47:23;;;;;;;24.88;13.27;;;19.40;99.90;;;;;;4867059;29;20052;-77
2022/06/16 05:50:10;;;;;;;17.92;5.90;;;19.50;99.90;;;;;;4873556;29;20393;-77
2022/06/16 05:52:56;;;;;;;14.63;6.93;;;19.40;99.90;;;;;;4877779;29;20060;-76
2022/06/16 05:55:41;;;;;;;12.20;5.72;;;19.60;99.90;;;;;;4878278;29;20124;-78
2022/06/16 05:58:27;;;;;;;14.25;6.25;;;19.50;99.90;;;;;;4877349;29;20083;-75
2022/06/16 06:01:14;;;;;;;9.80;5.63;;;19.60;99.90;;;;;;4877898;29;20413;-79
2022/06/16 06:04:00;;;;;;;13.55;5.22;;;19.70;99.90;;;;;;4877370;29;20178;-78
2022/06/16 06:06:45;;;;;;;8.52;4.93;;;19.80;99.90;;;;;;4870326;29;20160;-78
2022/06/16 06:18:35;;;;;;;10.43;5.30;;;20.00;99.90;;;;;;4858886;29;20191;-77
2022/06/16 06:21:58;;;;;;;15.25;6.63;;;20.20;99.90;;;;;;4858876;29;20048;-77
2022/06/16 06:24:31;;;;;;;14.80;5.90;;;20.20;99.90;;;;;;4858559;29;20517;-77
2022/06/16 06:27:22;;;;;;;14.70;5.70;;;20.20;99.90;;;;;;4858728;29;20069;-76
2022/06/16 06:30:20;;;;;;;14.75;7.10;;;20.30;99.90;;;;;;4857817;29;20056;-77
2022/06/16 06:33:07;;;;;;;16.25;6.85;;;20.50;99.90;;;;;;4859338;29;20137;-77
2022/06/16 06:35:54;;;;;;;19.13;8.00;;;20.50;99.90;;;;;;4859349;29;20140;-79
2022/06/16 06:38:40;;;;;;;19.35;8.20;;;20.60;99.90;;;;;;4857483;29;20073;-80
2022/06/16 06:41:26;;;;;;;18.02;8.13;;;20.60;99.90;;;;;;4858799;29;20449;-80
2022/06/16 06:44:12;;;;;;;19.30;8.73;;;20.70;99.90;;;;;;4858514;29;20493;-81
2022/06/16 06:46:58;;;;;;;21.38;8.25;;;20.60;99.90;;;;;;4859184;29;20127;-80
2022/06/16 06:49:44;;;;;;;14.65;7.88;;;20.70;99.90;;;;;;4858134;29;20568;-78
2022/06/16 06:52:30;;;;;;;17.95;7.93;;;20.80;99.90;;;;;;4857618;29;20060;-77
2022/06/16 06:55:18;;;;;;;19.35;7.85;;;20.80;99.90;;;;;;4858433;29;20061;-76
2022/06/16 06:58:06;;;;;;;18.60;8.00;;;20.80;99.90;;;;;;4858675;29;20075;-78
2022/06/16 07:00:58;;;;;;;15.10;7.35;;;20.80;99.90;;;;;;4866182;29;20085;-80
2022/06/16 07:03:44;;;;;;;16.02;7.00;;;20.80;99.90;;;;;;4872906;29;20082;-80
2022/06/16 07:06:30;;;;;;;18.17;8.35;;;20.90;99.90;;;;;;4871397;29;20048;-75
2022/06/16 07:09:17;;;;;;;11.82;7.70;;;20.90;99.90;;;;;;4869763;29;20264;-77
2022/06/16 07:12:04;;;;;;;17.23;7.45;;;21.00;99.90;;;;;;4869412;29;20044;-78
2022/06/16 07:14:50;;;;;;;14.38;6.72;;;21.00;99.90;;;;;;4870176;29;20066;-79
2022/06/16 07:17:36;;;;;;;13.48;6.13;;;21.20;99.90;;;;;;4872311;29;20176;-74
2022/06/16 07:20:22;;;;;;;18.40;6.93;;;21.20;99.90;;;;;;4870645;29;20063;-77
2022/06/16 07:23:08;;;;;;;15.65;7.22;;;21.20;99.50;;;;;;4869436;29;20050;-76
2022/06/16 07:25:55;;;;;;;14.45;6.55;;;21.20;99.50;;;;;;4870160;29;20141;-77
2022/06/16 07:28:41;;;;;;;14.88;6.70;;;21.30;98.90;;;;;;4869651;29;20048;-75
2022/06/16 07:31:28;;;;;;;13.77;6.28;;;21.40;98.50;;;;;;4870378;29;20051;-75
2022/06/16 07:34:21;;;;;;;16.45;6.88;;;21.30;98.60;;;;;;4868023;29;20052;-78
2022/06/16 07:37:07;;;;;;;16.83;6.60;;;21.40;98.60;;;;;;4869541;29;20084;-76
2022/06/16 07:39:53;;;;;;;14.68;6.00;;;21.40;97.90;;;;;;4868747;29;20107;-76
2022/06/16 07:42:39;;;;;;;16.52;7.15;;;21.50;98.00;;;;;;4870597;29;20147;-77
2022/06/16 07:45:25;;;;;;;15.20;6.25;;;21.60;98.30;;;;;;4869938;29;20052;-76
2022/06/16 07:48:15;;;;;;;11.27;6.20;;;21.70;97.90;;;;;;4869528;29;20405;-76
2022/06/16 07:51:01;;;;;;;12.10;6.63;;;21.80;98.00;;;;;;4870008;29;20409;-77
2022/06/16 07:53:48;;;;;;;19.98;6.57;;;21.90;97.70;;;;;;4866249;29;20060;-75
2022/06/16 07:56:34;;;;;;;12.45;6.15;;;21.80;97.70;;;;;;4870508;29;20141;-77
2022/06/16 07:59:19;;;;;;;13.95;6.15;;;21.90;96.40;;;;;;4869827;29;20052;-74
2022/06/16 08:02:07;;;;;;;12.98;5.90;;;21.90;96.20;;;;;;4869128;29;20393;-78
2022/06/16 08:04:54;;;;;;;12.13;5.88;;;21.90;95.90;;;;;;4871607;29;20056;-80
2022/06/16 08:07:41;;;;;;;14.05;5.68;;;22.00;95.90;;;;;;4861653;29;20052;-79
2022/06/16 08:10:33;;;;;;;12.63;7.03;;;22.20;95.60;;;;;;4861941;29;20057;-79
2022/06/16 08:13:20;;;;;;;11.43;5.47;;;22.10;94.60;;;;;;4860203;29;20056;-78
2022/06/16 08:16:06;;;;;;;10.95;5.40;;;22.10;94.30;;;;;;4860468;29;20118;-78
2022/06/16 08:18:52;;;;;;;12.13;5.63;;;22.20;95.30;;;;;;4859518;29;20136;-79
2022/06/16 08:21:38;;;;;;;8.07;4.68;;;22.30;94.90;;;;;;4860744;29;20521;-80
2022/06/16 08:24:24;;;;;;;8.15;4.63;;;22.40;94.40;;;;;;4860131;29;20060;-80
2022/06/16 08:27:11;;;;;;;12.55;4.90;;;22.40;94.40;;;;;;4860771;29;20056;-80
2022/06/16 08:29:57;;;;;;;7.47;4.10;;;22.60;92.30;;;;;;4860285;29;20049;-80
2022/06/16 08:32:43;;;;;;;9.50;4.47;;;22.60;92.00;;;;;;4860693;29;20064;-79
2022/06/16 08:35:30;;;;;;;9.65;4.53;;;22.60;91.30;;;;;;4860249;29;20060;-77
2022/06/16 08:38:16;;;;;;;9.80;4.72;;;22.60;90.90;;;;;;4859976;29;20121;-79
2022/06/16 08:41:15;;;;;;;7.90;3.60;;;22.50;91.50;;;;;;4871953;29;20065;-80
2022/06/16 08:44:24;;;;;;;9.45;4.20;;;22.60;91.30;;;;;;4860350;29;20521;-80
2022/06/16 08:47:21;;;;;;;10.35;4.20;;;22.80;92.80;;;;;;4860226;29;20094;-77
2022/06/16 08:50:53;;;;;;;9.98;3.60;;;22.80;91.50;;;;;;4859969;29;20072;-78
2022/06/16 08:53:57;;;;;;;7.03;3.58;;;22.70;90.70;;;;;;4784773;30;20046;-79
2022/06/16 08:57:08;;;;;;;5.05;3.10;;;22.80;88.30;;;;;;4858861;29;20125;-82
2022/06/16 09:00:19;;;;;;;6.55;3.30;;;22.80;89.90;;;;;;4859951;29;20072;-82
2022/06/16 09:03:13;;;;;;;9.25;5.25;;;23.10;90.00;;;;;;4860260;29;20425;-80
2022/06/16 09:06:37;;;;;;;6.78;3.95;;;23.20;90.50;;;;;;4860352;29;20052;-81
2022/06/16 09:10:15;;;;;;;5.68;3.03;;;23.30;90.00;;;;;;4872110;29;20075;-77
2022/06/16 09:13:13;;;;;;;7.47;3.38;;;23.40;86.60;;;;;;4859883;29;20065;-77
2022/06/16 09:16:28;;;;;;;10.43;3.40;;;23.40;84.90;;;;;;4871374;29;20611;-81
2022/06/16 09:19:41;;;;;;;5.30;2.60;;;23.40;84.60;;;;;;4850217;29;20052;-77
2022/06/16 09:22:44;;;;;;;4.55;2.80;;;23.50;83.80;;;;;;4859528;29;20135;-77
2022/06/16 09:25:51;;;;;;;9.13;4.75;;;23.50;82.20;;;;;;4858526;29;20561;-75
2022/06/16 09:29:04;;;;;;;8.77;5.13;;;23.70;83.00;;;;;;4859444;29;20429;-76
2022/06/16 09:31:59;;;;;;;5.63;3.35;;;23.70;79.70;;;;;;4871261;29;20056;-76
2022/06/16 09:34:51;;;;;;;6.30;2.95;;;23.90;79.00;;;;;;4859271;29;20158;-76
2022/06/16 09:37:55;;;;;;;8.82;2.67;;;24.10;80.50;;;;;;4859212;29;20056;-75
2022/06/16 09:40:50;;;;;;;5.47;2.90;;;24.40;79.40;;;;;;4860488;29;20060;-77
2022/06/16 09:43:41;;;;;;;5.68;2.33;;;24.20;76.60;;;;;;4858592;29;20068;-76
2022/06/16 09:46:40;;;;;;;5.45;2.63;;;24.30;76.70;;;;;;4868750;29;20068;-75
2022/06/16 09:49:39;;;;;;;5.65;3.20;;;24.50;76.40;;;;;;4862950;29;20060;-77
2022/06/16 09:52:53;;;;;;;5.22;2.83;;;24.50;76.00;;;;;;4878686;29;20059;-76
2022/06/16 09:55:46;;;;;;;7.53;3.03;;;24.40;73.60;;;;;;4878150;29;20144;-77
2022/06/16 09:58:50;;;;;;;6.95;2.78;;;24.70;75.50;;;;;;4873085;29;20055;-77
2022/06/16 10:01:52;;;;;;;5.15;2.78;;;24.70;73.70;;;;;;4862307;29;20052;-79
2022/06/16 10:04:38;;;;;;;4.47;2.42;;;24.70;71.60;;;;;;4889583;29;20416;-76
2022/06/16 10:07:43;;;;;;;7.13;4.20;;;24.70;69.60;;;;;;4877231;29;20067;-81
2022/06/16 10:10:35;;;;;;;5.00;2.67;;;24.80;71.00;;;;;;4877491;29;20154;-75
2022/06/16 10:13:43;;;;;;;8.00;3.10;;;25.20;71.70;;;;;;4875920;29;20189;-76
2022/06/16 10:16:46;;;;;;;7.10;2.97;;;25.30;70.00;;;;;;4877400;29;20131;-77
2022/06/16 10:19:39;;;;;;;5.28;2.30;;;25.40;69.90;;;;;;4877274;29;20535;-77
2022/06/16 10:22:28;;;;;;;6.15;2.33;;;25.50;65.90;;;;;;4877034;29;20056;-76
2022/06/16 10:25:16;;;;;;;6.05;2.45;;;25.70;64.10;;;;;;4876836;29;20055;-77
2022/06/16 10:28:59;;;;;;;7.93;2.92;;;25.80;63.60;;;;;;4875646;29;20059;-80
2022/06/16 10:31:48;;;;;;;4.30;2.25;;;25.70;65.20;;;;;;4821876;29;20061;-77
2022/06/16 10:34:41;;;;;;;6.93;2.30;;;25.90;64.00;;;;;;4858691;29;20068;-75
2022/06/16 10:37:30;;;;;;;4.43;2.20;;;26.10;64.00;;;;;;4862028;29;20065;-77
2022/06/16 10:40:31;;;;;;;5.30;2.65;;;26.00;65.00;;;;;;4861905;29;20064;-77
2022/06/16 10:43:40;;;;;;;7.40;2.58;;;26.20;63.10;;;;;;4864833;29;20377;-77
2022/06/16 10:46:49;;;;;;;5.80;2.47;;;26.20;64.10;;;;;;4880889;29;20132;-77
2022/06/16 10:49:38;;;;;;;6.57;2.85;;;26.40;64.90;;;;;;4879555;29;20136;-78
2022/06/16 10:52:29;;;;;;;4.72;2.20;;;26.50;63.00;;;;;;4879252;29;20051;-75
2022/06/16 10:55:29;;;;;;;4.13;2.38;;;26.20;61.10;;;;;;4880742;29;20171;-76
2022/06/16 10:58:27;;;;;;;4.30;2.45;;;26.00;61.10;;;;;;4876020;29;20537;-76
2022/06/16 11:01:30;;;;;;;5.03;2.30;;;26.20;61.00;;;;;;4860569;29;20067;-80
2022/06/16 11:04:22;;;;;;;5.55;2.55;;;26.40;63.10;;;;;;4861680;29;20059;-79
2022/06/16 11:07:11;;;;;;;4.07;2.22;;;26.40;61.30;;;;;;4873660;29;20528;-80
2022/06/16 11:10:10;;;;;;;5.05;2.33;;;26.50;59.80;;;;;;4879344;29;20083;-78
2022/06/16 11:12:57;;;;;;;5.85;3.28;;;26.90;62.40;;;;;;4879138;29;20414;-78
2022/06/16 11:15:50;;;;;;;6.50;4.75;;;26.90;63.10;;;;;;4880083;29;20405;-77
2022/06/16 11:18:38;;;;;;;5.40;2.60;;;27.00;64.10;;;;;;4879902;29;20052;-78
2022/06/16 11:21:29;;;;;;;4.88;2.60;;;27.10;62.00;;;;;;4879870;29;20072;-79
2022/06/16 11:24:29;;;;;;;4.43;2.25;;;27.40;61.90;;;;;;4879276;29;20052;-78
2022/06/16 11:27:16;;;;;;;5.28;2.70;;;27.50;61.60;;;;;;4879095;29;20418;-79
2022/06/16 11:30:23;;;;;;;5.25;2.65;;;27.40;59.30;;;;;;4863331;29;20183;-79
2022/06/16 11:37:09;;;;;;;5.22;2.20;;;27.20;58.60;;;;;;4861738;29;20104;-79
2022/06/16 11:40:11;;;;;;;4.63;2.38;;;27.20;60.10;;;;;;4877333;29;20120;-78
2022/06/16 11:43:27;;;;;;;4.70;2.50;;;27.40;59.80;;;;;;4878912;29;20060;-77
2022/06/16 11:46:45;;;;;;;6.35;2.65;;;27.50;60.10;;;;;;4860045;29;20110;-80
2022/06/16 11:49:34;;;;;;;6.18;2.80;;;27.60;57.90;;;;;;4850676;29;20065;-78
2022/06/16 11:52:28;;;;;;;11.60;6.60;;;27.60;58.80;;;;;;4861258;29;20068;-81
2022/06/16 11:55:32;;;;;;;7.25;2.75;;;27.80;59.70;;;;;;4860740;29;20158;-82
2022/06/16 11:59:00;;;;;;;4.28;2.53;;;28.00;60.90;;;;;;4863253;29;20140;-80
2022/06/16 12:01:57;;;;;;;6.97;2.75;;;28.10;58.80;;;;;;4879502;29;20137;-80
2022/06/16 12:05:21;;;;;;;6.65;3.28;;;28.10;58.10;;;;;;4878300;29;20060;-80
2022/06/16 12:08:38;;;;;;;6.63;3.50;;;28.40;59.10;;;;;;4872751;29;20089;-78
2022/06/16 12:11:36;;;;;;;6.03;3.15;;;28.30;58.60;;;;;;4877645;29;20417;-79
2022/06/16 12:15:10;;;;;;;6.95;4.03;;;28.40;60.10;;;;;;4872125;29;20532;-75
2022/06/16 12:18:21;;;;;;;6.82;2.55;;;28.50;58.70;;;;;;4871518;29;20497;-77
2022/06/16 12:21:30;;;;;;;5.78;2.78;;;28.60;58.20;;;;;;4876352;29;20056;-80
2022/06/16 12:24:40;;;;;;;5.72;3.13;;;28.40;56.80;;;;;;4878496;29;20072;-78
2022/06/16 12:27:35;;;;;;;4.88;2.40;;;28.30;57.20;;;;;;4878216;29;20075;-79
2022/06/16 12:30:35;;;;;;;7.82;2.83;;;28.70;57.30;;;;;;4878989;29;20052;-78
2022/06/16 12:33:59;;;;;;;5.93;2.90;;;28.70;57.30;;;;;;4877610;29;20595;-79
2022/06/16 12:36:51;;;;;;;10.52;6.13;;;28.90;58.00;;;;;;4848152;29;20532;-78
2022/06/16 12:39:49;;;;;;;8.32;3.92;;;29.20;58.80;;;;;;4859236;29;20156;-77
2022/06/16 12:42:40;;;;;;;6.40;3.00;;;29.10;59.70;;;;;;4859342;29;20064;-79
2022/06/16 12:45:33;;;;;;;5.80;3.00;;;29.10;56.70;;;;;;4860110;29;20052;-78
2022/06/16 12:48:34;;;;;;;7.03;2.90;;;29.20;56.50;;;;;;4871971;29;20519;-79
2022/06/16 12:51:25;;;;;;;4.57;2.60;;;29.30;55.80;;;;;;4878206;29;20533;-76
2022/06/16 12:54:17;;;;;;;8.77;3.15;;;29.00;55.40;;;;;;4878164;29;20064;-81
2022/06/16 12:57:18;;;;;;;6.65;3.78;;;28.90;56.70;;;;;;4877320;29;20057;-77
2022/06/16 13:00:12;;;;;;;6.40;3.30;;;28.80;54.30;;;;;;4877801;29;20695;-78
2022/06/16 13:03:09;;;;;;;6.25;3.10;;;28.90;55.70;;;;;;4876969;29;20060;-77
2022/06/16 13:05:57;;;;;;;6.10;2.72;;;29.20;57.30;;;;;;4872877;29;20127;-77
2022/06/16 13:08:47;;;;;;;7.78;3.03;;;29.20;54.70;;;;;;4859313;29;20193;-75
2022/06/16 13:11:41;;;;;;;4.93;2.60;;;29.40;54.30;;;;;;4871787;29;20140;-78
2022/06/16 13:14:30;;;;;;;4.93;3.10;;;29.50;55.30;;;;;;4868136;29;20079;-78
2022/06/16 13:17:22;;;;;;;9.38;2.75;;;29.70;56.80;;;;;;4869283;29;20061;-79
2022/06/16 13:20:12;;;;;;;5.75;2.60;;;29.60;54.80;;;;;;4885622;29;20345;-78
2022/06/16 13:23:15;;;;;;;6.15;2.80;;;29.50;55.30;;;;;;4859798;29;20175;-77
2022/06/16 13:26:26;;;;;;;6.53;2.92;;;29.60;55.70;;;;;;4859789;29;20156;-77
2022/06/16 13:29:18;;;;;;;6.03;3.08;;;29.80;55.20;;;;;;4859061;29;20053;-76
2022/06/16 13:32:28;;;;;;;6.25;3.28;;;30.10;55.40;;;;;;4859636;29;20133;-81
2022/06/16 13:35:15;;;;;;;6.40;2.50;;;30.30;53.90;;;;;;4869716;29;20097;-84
2022/06/16 13:38:03;;;;;;;6.35;3.05;;;30.30;53.20;;;;;;4878255;29;20153;-77
2022/06/16 13:41:28;;;;;;;9.30;3.25;;;30.30;55.30;;;;;;4879004;29;20064;-80
2022/06/16 13:44:21;;;;;;;9.02;3.17;;;30.30;53.10;;;;;;4859561;29;20125;-79
2022/06/16 13:47:13;;;;;;;8.82;2.83;;;30.40;52.40;;;;;;4859638;29;20064;-79
2022/06/16 13:50:02;;;;;;;5.78;2.58;;;30.50;52.90;;;;;;4869088;29;20590;-80
2022/06/16 13:53:03;;;;;;;9.32;3.50;;;30.70;54.40;;;;;;4877048;29;20155;-77
2022/06/16 13:55:58;;;;;;;4.85;2.65;;;30.60;54.00;;;;;;4873154;29;20417;-76
2022/06/16 13:58:50;;;;;;;4.40;2.30;;;30.60;52.70;;;;;;4877659;29;20148;-80
2022/06/16 14:02:06;;;;;;;4.72;2.70;;;30.90;53.30;;;;;;4875468;29;20140;-75
2022/06/16 14:05:06;;;;;;;4.85;2.47;;;31.00;52.80;;;;;;4878574;29;20101;-85
2022/06/16 14:07:59;;;;;;;5.07;2.72;;;31.20;52.60;;;;;;4869328;29;20055;-80
2022/06/16 14:10:51;;;;;;;5.38;2.85;;;31.30;53.10;;;;;;4870515;29;20233;-79
2022/06/16 14:13:46;;;;;;;6.20;3.65;;;31.40;54.30;;;;;;4868070;29;20137;-85
2022/06/16 14:16:38;;;;;;;4.90;2.80;;;31.50;52.80;;;;;;4862405;29;20056;-80
2022/06/16 14:19:39;;;;;;;5.78;2.88;;;31.30;52.00;;;;;;4864571;29;20665;-76
2022/06/16 14:22:29;;;;;;;5.05;2.80;;;31.30;50.10;;;;;;4874215;29;20071;-79
2022/06/16 14:25:29;;;;;;;5.45;2.92;;;31.40;49.70;;;;;;4880998;29;20521;-77
2022/06/16 14:28:22;;;;;;;4.82;2.58;;;31.50;51.00;;;;;;4881154;29;20098;-78
2022/06/16 14:31:37;;;;;;;14.18;2.97;;;31.50;51.00;;;;;;4881250;29;20425;-79
2022/06/16 14:34:55;;;;;;;6.03;2.90;;;31.30;48.80;;;;;;4880711;29;20173;-78
2022/06/16 14:37:48;;;;;;;7.47;2.50;;;31.40;47.30;;;;;;4880948;29;20182;-77
2022/06/16 14:40:44;;;;;;;6.28;2.92;;;31.00;50.10;;;;;;4880670;29;20060;-77
2022/06/16 14:43:37;;;;;;;4.55;2.50;;;31.50;49.80;;;;;;4880915;29;20052;-82
2022/06/16 14:46:43;;;;;;;10.70;2.80;;;31.40;49.00;;;;;;4879758;29;20508;-77
2022/06/16 14:49:39;;;;;;;8.80;4.30;;;31.80;50.10;;;;;;4866269;29;20429;-78
2022/06/16 14:52:39;;;;;;;7.30;2.67;;;31.50;48.90;;;;;;4870123;29;20070;-77
2022/06/16 14:55:45;;;;;;;8.38;2.83;;;31.40;48.80;;;;;;4871704;29;20129;-79
2022/06/16 14:58:45;;;;;;;5.65;2.80;;;31.30;51.90;;;;;;4878470;29;20205;-77
2022/06/16 15:01:35;;;;;;;5.25;2.25;;;31.20;51.70;;;;;;4880555;29;20056;-78
2022/06/16 15:04:25;;;;;;;7.53;3.90;;;31.10;49.10;;;;;;4880557;29;20052;-79
2022/06/16 15:07:15;;;;;;;23.10;16.00;;;31.50;49.60;;;;;;4880642;29;20068;-76
2022/06/16 15:10:03;;;;;;;13.25;9.35;;;31.80;50.20;;;;;;4877825;29;20068;-75
2022/06/16 15:12:51;;;;;;;4.90;2.88;;;31.90;49.80;;;;;;4880269;29;20064;-77
2022/06/16 15:15:38;;;;;;;9.25;3.28;;;31.80;48.90;;;;;;4879928;29;20127;-77
2022/06/16 15:18:38;;;;;;;5.93;2.50;;;32.00;49.10;;;;;;4880133;29;20406;-78
2022/06/16 15:21:26;;;;;;;6.43;2.95;;;31.80;48.40;;;;;;4874485;29;20513;-77